CSAV Lonquen — A8OT2 — position and weather

sailwx.info

Track history (hours):
 
Tides and Currents Weather Stations Pressure Air Temp Water Temp Dewpoint Dewpoint Depression Visibility Wind Speed Wind Dir Waves Ship Positions

CSAV Lonquen

Last reported at 2015-Feb-26 23:33 UTC. Time now 2015-Feb-27 04:09 UTC.
Position N 31°09' E 029°48'.

Length 261 m; draft 10.4 m.

Type: Ship (hazmat cat A). MMSI: 636091501.

Date/timePositionNaut miles runAvg speedWind from/ knotsBaromVisibWave heightAir tempDewpointWater temp
2015-Feb-26 23:33N 31°09' E 029°48'0 0.0
2015-Feb-26 22:33N 31°09' E 029°48'0 0.0
2015-Feb-26 21:15N 31°09' E 029°48'0 0.0
2015-Feb-26 20:28N 31°09' E 029°48'0 0.0
2015-Feb-26 19:33N 31°09' E 029°48'  
2015-Feb-20 21:33N 34°14' E 032°51'8 8.4
2015-Feb-20 20:33N 34°21' E 032°57'9 8.6
2015-Feb-20 19:33N 34°27' E 033°04'8 7.9
2015-Feb-20 18:33N 34°35' E 033°07'6 6.3
2015-Feb-20 17:31N 34°39' E 033°01'0 0.1
2015-Feb-20 16:31N 34°39' E 033°01'0 0.0
2015-Feb-20 15:31N 34°39' E 033°01'0 0.0
2015-Feb-20 14:31N 34°39' E 033°01'0 0.0
2015-Feb-20 13:31N 34°39' E 033°01'0 0.0
2015-Feb-20 12:31N 34°39' E 033°01'0 0.0
2015-Feb-20 11:31N 34°39' E 033°01'0 0.0
2015-Feb-20 10:31N 34°39' E 033°01'0 0.0
2015-Feb-20 09:31N 34°39' E 033°01'0 0.0
2015-Feb-20 08:31N 34°39' E 033°01'0 0.0
2015-Feb-20 07:31N 34°39' E 033°01'0 0.0
2015-Feb-20 06:31N 34°39' E 033°01'0 0.0
2015-Feb-20 05:31N 34°39' E 033°01'2 1.9
2015-Feb-20 04:33N 34°39' E 033°03'3 2.6
2015-Feb-20 03:33N 34°37' E 033°05'1413.7
2015-Feb-20 02:33N 34°26' E 033°16'1 0.6
2015-Feb-20 01:33N 34°26' E 033°15'1 1.0
2015-Feb-20 00:33N 34°27' E 033°14'1 1.0
2015-Feb-19 23:33N 34°27' E 033°13'1 1.3
2015-Feb-19 22:33N 34°28' E 033°12'1 1.3
2015-Feb-19 21:33N 34°28' E 033°10'1 1.5
2015-Feb-19 20:33N 34°28' E 033°08'1 1.3
2015-Feb-19 19:33N 34°28' E 033°07'1 1.2
2015-Feb-19 18:33N 34°28' E 033°05'1 1.1
2015-Feb-19 17:33N 34°28' E 033°04'1 1.3
2015-Feb-19 16:33N 34°28' E 033°02'1 1.3
2015-Feb-19 15:33N 34°28' E 033°01'8 8.4
2015-Feb-19 14:34N 34°25' E 032°52'1111.4
2015-Feb-19 13:33N 34°25' E 032°38'  
Track history (hours):
 
Tides and Currents Weather Stations Pressure Air Temp Water Temp Dewpoint Dewpoint Depression Visibility Wind Speed Wind Dir Waves Ship Positions

CSAV Lonquen

Last reported at 2015-Feb-26 23:33 UTC. Time now 2015-Feb-27 04:09 UTC.
Position N 31°09' E 029°48'.

Length 261 m; draft 10.4 m.

Type: Ship (hazmat cat A). MMSI: 636091501.

Date/timePositionNaut miles runAvg speedWind from/ knotsBaromVisibWave heightAir tempDewpointWater temp
2015-Feb-26 23:33N 31°09' E 029°48'0 0.0
2015-Feb-26 22:33N 31°09' E 029°48'0 0.0
2015-Feb-26 21:15N 31°09' E 029°48'0 0.0
2015-Feb-26 20:28N 31°09' E 029°48'0 0.0
2015-Feb-26 19:33N 31°09' E 029°48'  
2015-Feb-20 21:33N 34°14' E 032°51'8 8.4
2015-Feb-20 20:33N 34°21' E 032°57'9 8.6
2015-Feb-20 19:33N 34°27' E 033°04'8 7.9
2015-Feb-20 18:33N 34°35' E 033°07'6 6.3
2015-Feb-20 17:31N 34°39' E 033°01'0 0.1
2015-Feb-20 16:31N 34°39' E 033°01'0 0.0
2015-Feb-20 15:31N 34°39' E 033°01'0 0.0
2015-Feb-20 14:31N 34°39' E 033°01'0 0.0
2015-Feb-20 13:31N 34°39' E 033°01'0 0.0
2015-Feb-20 12:31N 34°39' E 033°01'0 0.0
2015-Feb-20 11:31N 34°39' E 033°01'0 0.0
2015-Feb-20 10:31N 34°39' E 033°01'0 0.0
2015-Feb-20 09:31N 34°39' E 033°01'0 0.0
2015-Feb-20 08:31N 34°39' E 033°01'0 0.0
2015-Feb-20 07:31N 34°39' E 033°01'0 0.0
2015-Feb-20 06:31N 34°39' E 033°01'0 0.0
2015-Feb-20 05:31N 34°39' E 033°01'2 1.9
2015-Feb-20 04:33N 34°39' E 033°03'3 2.6
2015-Feb-20 03:33N 34°37' E 033°05'1413.7
2015-Feb-20 02:33N 34°26' E 033°16'1 0.6
2015-Feb-20 01:33N 34°26' E 033°15'1 1.0
2015-Feb-20 00:33N 34°27' E 033°14'1 1.0
2015-Feb-19 23:33N 34°27' E 033°13'1 1.3
2015-Feb-19 22:33N 34°28' E 033°12'1 1.3
2015-Feb-19 21:33N 34°28' E 033°10'1 1.5
2015-Feb-19 20:33N 34°28' E 033°08'1 1.3
2015-Feb-19 19:33N 34°28' E 033°07'1 1.2
2015-Feb-19 18:33N 34°28' E 033°05'1 1.1
2015-Feb-19 17:33N 34°28' E 033°04'1 1.3
2015-Feb-19 16:33N 34°28' E 033°02'1 1.3
2015-Feb-19 15:33N 34°28' E 033°01'8 8.4
2015-Feb-19 14:34N 34°25' E 032°52'1111.4
2015-Feb-19 13:33N 34°25' E 032°38'  

Dump ship's entire track history